sensor_id;sensor_type;location;lat;lon;timestamp;P1;durP1;ratioP1;P2;durP2;ratioP2
40515;SDS011;26216;53.724;9.898;2023-01-16T00:00:57;2.05;;;1.60;;
40515;SDS011;26216;53.724;9.898;2023-01-16T00:03:24;3.17;;;1.85;;
40515;SDS011;26216;53.724;9.898;2023-01-16T00:05:50;2.90;;;1.70;;
40515;SDS011;26216;53.724;9.898;2023-01-16T00:08:16;3.63;;;2.03;;
40515;SDS011;26216;53.724;9.898;2023-01-16T00:10:45;2.97;;;1.67;;
40515;SDS011;26216;53.724;9.898;2023-01-16T00:13:12;2.72;;;1.60;;
40515;SDS011;26216;53.724;9.898;2023-01-16T00:15:43;2.70;;;1.90;;
40515;SDS011;26216;53.724;9.898;2023-01-16T00:18:10;2.42;;;1.60;;
40515;SDS011;26216;53.724;9.898;2023-01-16T00:20:36;2.92;;;1.90;;
40515;SDS011;26216;53.724;9.898;2023-01-16T00:23:02;2.90;;;2.00;;
40515;SDS011;26216;53.724;9.898;2023-01-16T00:25:28;2.70;;;1.90;;
40515;SDS011;26216;53.724;9.898;2023-01-16T00:27:53;3.88;;;2.30;;
40515;SDS011;26216;53.724;9.898;2023-01-16T00:30:19;3.75;;;2.00;;
40515;SDS011;26216;53.724;9.898;2023-01-16T00:32:45;3.65;;;2.10;;
40515;SDS011;26216;53.724;9.898;2023-01-16T00:35:12;4.60;;;2.20;;
40515;SDS011;26216;53.724;9.898;2023-01-16T00:37:38;4.72;;;2.22;;
40515;SDS011;26216;53.724;9.898;2023-01-16T00:40:04;2.80;;;2.00;;
40515;SDS011;26216;53.724;9.898;2023-01-16T00:42:31;4.07;;;2.00;;
40515;SDS011;26216;53.724;9.898;2023-01-16T00:44:57;4.55;;;2.08;;
40515;SDS011;26216;53.724;9.898;2023-01-16T00:47:23;2.63;;;2.00;;
40515;SDS011;26216;53.724;9.898;2023-01-16T00:49:49;2.25;;;1.90;;
40515;SDS011;26216;53.724;9.898;2023-01-16T00:52:14;4.60;;;2.28;;
40515;SDS011;26216;53.724;9.898;2023-01-16T00:54:40;3.90;;;2.22;;
40515;SDS011;26216;53.724;9.898;2023-01-16T00:57:06;4.13;;;2.40;;
40515;SDS011;26216;53.724;9.898;2023-01-16T00:59:32;3.92;;;2.40;;
40515;SDS011;26216;53.724;9.898;2023-01-16T01:01:58;4.80;;;2.72;;
40515;SDS011;26216;53.724;9.898;2023-01-16T01:04:24;2.88;;;2.47;;
40515;SDS011;26216;53.724;9.898;2023-01-16T01:06:49;3.35;;;2.38;;
40515;SDS011;26216;53.724;9.898;2023-01-16T01:09:15;3.28;;;2.17;;
40515;SDS011;26216;53.724;9.898;2023-01-16T01:11:41;4.28;;;2.70;;
40515;SDS011;26216;53.724;9.898;2023-01-16T01:14:07;6.28;;;3.45;;
40515;SDS011;26216;53.724;9.898;2023-01-16T01:16:33;4.75;;;2.88;;
40515;SDS011;26216;53.724;9.898;2023-01-16T01:18:59;4.25;;;3.15;;
40515;SDS011;26216;53.724;9.898;2023-01-16T01:21:25;5.65;;;3.45;;
40515;SDS011;26216;53.724;9.898;2023-01-16T01:23:51;4.10;;;2.85;;
40515;SDS011;26216;53.724;9.898;2023-01-16T01:26:17;4.70;;;3.38;;
40515;SDS011;26216;53.724;9.898;2023-01-16T01:28:43;3.92;;;2.83;;
40515;SDS011;26216;53.724;9.898;2023-01-16T01:31:11;3.42;;;2.70;;
40515;SDS011;26216;53.724;9.898;2023-01-16T01:33:37;4.05;;;2.85;;
40515;SDS011;26216;53.724;9.898;2023-01-16T01:36:04;3.28;;;2.42;;
40515;SDS011;26216;53.724;9.898;2023-01-16T01:38:30;3.53;;;2.60;;
40515;SDS011;26216;53.724;9.898;2023-01-16T01:40:57;4.85;;;2.60;;
40515;SDS011;26216;53.724;9.898;2023-01-16T01:46:28;6.97;;;2.63;;
40515;SDS011;26216;53.724;9.898;2023-01-16T01:49:08;3.72;;;2.22;;
40515;SDS011;26216;53.724;9.898;2023-01-16T01:51:55;2.90;;;1.60;;
40515;SDS011;26216;53.724;9.898;2023-01-16T01:54:26;3.03;;;1.80;;
40515;SDS011;26216;53.724;9.898;2023-01-16T01:59:27;2.33;;;1.50;;
40515;SDS011;26216;53.724;9.898;2023-01-16T02:01:58;3.97;;;1.73;;
40515;SDS011;26216;53.724;9.898;2023-01-16T02:04:29;6.10;;;2.00;;
40515;SDS011;26216;53.724;9.898;2023-01-16T02:07:01;3.95;;;1.42;;
40515;SDS011;26216;53.724;9.898;2023-01-16T02:09:31;3.20;;;1.50;;
40515;SDS011;26216;53.724;9.898;2023-01-16T02:11:58;4.03;;;1.48;;
40515;SDS011;26216;53.724;9.898;2023-01-16T02:14:36;5.35;;;1.35;;
40515;SDS011;26216;53.724;9.898;2023-01-16T02:17:05;2.28;;;1.15;;
40515;SDS011;26216;53.724;9.898;2023-01-16T02:23:18;1.98;;;0.82;;
40515;SDS011;26216;53.724;9.898;2023-01-16T02:36:27;2.70;;;1.05;;
40515;SDS011;26216;53.724;9.898;2023-01-16T02:42:13;3.47;;;1.00;;
40515;SDS011;26216;53.724;9.898;2023-01-16T02:45:02;2.65;;;1.23;;
40515;SDS011;26216;53.724;9.898;2023-01-16T02:51:14;3.53;;;1.40;;
40515;SDS011;26216;53.724;9.898;2023-01-16T02:56:26;3.92;;;1.60;;
40515;SDS011;26216;53.724;9.898;2023-01-16T02:58:57;2.80;;;1.58;;
40515;SDS011;26216;53.724;9.898;2023-01-16T03:01:24;3.83;;;1.45;;
40515;SDS011;26216;53.724;9.898;2023-01-16T03:06:27;2.45;;;1.23;;
40515;SDS011;26216;53.724;9.898;2023-01-16T03:09:39;2.00;;;1.38;;
40515;SDS011;26216;53.724;9.898;2023-01-16T03:15:04;2.53;;;1.10;;
40515;SDS011;26216;53.724;9.898;2023-01-16T03:34:09;1.25;;;0.80;;
40515;SDS011;26216;53.724;9.898;2023-01-16T03:36:58;2.05;;;0.95;;
40515;SDS011;26216;53.724;9.898;2023-01-16T03:39:37;2.05;;;1.00;;
40515;SDS011;26216;53.724;9.898;2023-01-16T03:42:21;2.15;;;0.80;;
40515;SDS011;26216;53.724;9.898;2023-01-16T03:44:56;1.88;;;0.90;;
40515;SDS011;26216;53.724;9.898;2023-01-16T03:47:31;3.60;;;0.93;;
40515;SDS011;26216;53.724;9.898;2023-01-16T03:50:03;1.90;;;0.80;;
40515;SDS011;26216;53.724;9.898;2023-01-16T03:52:39;1.10;;;0.73;;
40515;SDS011;26216;53.724;9.898;2023-01-16T03:55:18;2.72;;;1.23;;
40515;SDS011;26216;53.724;9.898;2023-01-16T03:57:57;2.67;;;1.00;;
40515;SDS011;26216;53.724;9.898;2023-01-16T04:00:47;2.90;;;1.00;;
40515;SDS011;26216;53.724;9.898;2023-01-16T04:03:56;2.20;;;0.85;;
40515;SDS011;26216;53.724;9.898;2023-01-16T04:06:48;2.13;;;0.98;;
40515;SDS011;26216;53.724;9.898;2023-01-16T04:09:53;2.13;;;0.80;;
40515;SDS011;26216;53.724;9.898;2023-01-16T04:12:52;2.35;;;0.95;;
40515;SDS011;26216;53.724;9.898;2023-01-16T04:15:55;4.25;;;1.20;;
40515;SDS011;26216;53.724;9.898;2023-01-16T04:18:33;2.42;;;0.90;;
40515;SDS011;26216;53.724;9.898;2023-01-16T04:21:00;2.03;;;1.00;;
40515;SDS011;26216;53.724;9.898;2023-01-16T04:23:30;2.33;;;0.93;;
40515;SDS011;26216;53.724;9.898;2023-01-16T04:25:56;1.65;;;0.90;;
40515;SDS011;26216;53.724;9.898;2023-01-16T04:28:22;2.20;;;0.60;;
40515;SDS011;26216;53.724;9.898;2023-01-16T04:30:48;1.70;;;0.70;;
40515;SDS011;26216;53.724;9.898;2023-01-16T04:33:14;2.08;;;1.00;;
40515;SDS011;26216;53.724;9.898;2023-01-16T04:35:40;3.80;;;0.90;;
40515;SDS011;26216;53.724;9.898;2023-01-16T04:38:06;4.30;;;0.93;;
40515;SDS011;26216;53.724;9.898;2023-01-16T04:40:32;1.67;;;0.85;;
40515;SDS011;26216;53.724;9.898;2023-01-16T04:42:58;1.63;;;0.70;;
40515;SDS011;26216;53.724;9.898;2023-01-16T04:45:23;1.25;;;0.60;;
40515;SDS011;26216;53.724;9.898;2023-01-16T04:47:50;2.95;;;0.90;;
40515;SDS011;26216;53.724;9.898;2023-01-16T04:50:17;2.63;;;0.90;;
40515;SDS011;26216;53.724;9.898;2023-01-16T04:52:43;2.15;;;0.80;;
40515;SDS011;26216;53.724;9.898;2023-01-16T04:55:10;4.00;;;1.10;;
40515;SDS011;26216;53.724;9.898;2023-01-16T04:57:36;4.25;;;1.40;;
40515;SDS011;26216;53.724;9.898;2023-01-16T05:00:03;3.38;;;1.02;;
40515;SDS011;26216;53.724;9.898;2023-01-16T05:02:29;1.98;;;1.05;;
40515;SDS011;26216;53.724;9.898;2023-01-16T05:04:55;1.92;;;0.60;;
40515;SDS011;26216;53.724;9.898;2023-01-16T05:07:21;2.08;;;0.63;;
40515;SDS011;26216;53.724;9.898;2023-01-16T05:09:47;2.00;;;0.70;;
40515;SDS011;26216;53.724;9.898;2023-01-16T05:12:13;1.90;;;0.75;;
40515;SDS011;26216;53.724;9.898;2023-01-16T05:14:38;2.17;;;0.65;;
40515;SDS011;26216;53.724;9.898;2023-01-16T05:17:04;2.47;;;0.80;;
40515;SDS011;26216;53.724;9.898;2023-01-16T05:19:30;1.95;;;0.70;;
40515;SDS011;26216;53.724;9.898;2023-01-16T05:21:56;1.60;;;0.50;;
40515;SDS011;26216;53.724;9.898;2023-01-16T05:24:22;1.52;;;0.60;;
40515;SDS011;26216;53.724;9.898;2023-01-16T05:26:48;3.92;;;0.70;;
40515;SDS011;26216;53.724;9.898;2023-01-16T05:29:14;3.13;;;0.90;;
40515;SDS011;26216;53.724;9.898;2023-01-16T05:31:47;2.47;;;0.95;;
40515;SDS011;26216;53.724;9.898;2023-01-16T05:34:14;3.20;;;0.90;;
40515;SDS011;26216;53.724;9.898;2023-01-16T05:36:40;2.83;;;0.63;;
40515;SDS011;26216;53.724;9.898;2023-01-16T05:39:09;2.13;;;0.60;;
40515;SDS011;26216;53.724;9.898;2023-01-16T05:41:35;1.70;;;0.68;;
40515;SDS011;26216;53.724;9.898;2023-01-16T05:44:01;1.10;;;0.50;;
40515;SDS011;26216;53.724;9.898;2023-01-16T05:46:27;1.13;;;0.73;;
40515;SDS011;26216;53.724;9.898;2023-01-16T05:48:53;1.50;;;0.50;;
40515;SDS011;26216;53.724;9.898;2023-01-16T05:51:19;2.88;;;0.95;;
40515;SDS011;26216;53.724;9.898;2023-01-16T05:53:49;0.52;;;0.50;;
40515;SDS011;26216;53.724;9.898;2023-01-16T05:56:15;3.67;;;0.80;;
40515;SDS011;26216;53.724;9.898;2023-01-16T05:58:45;2.15;;;0.60;;
40515;SDS011;26216;53.724;9.898;2023-01-16T06:01:11;1.25;;;0.70;;
40515;SDS011;26216;53.724;9.898;2023-01-16T06:03:36;1.83;;;0.40;;
40515;SDS011;26216;53.724;9.898;2023-01-16T06:06:02;2.53;;;0.70;;
40515;SDS011;26216;53.724;9.898;2023-01-16T06:08:28;1.73;;;0.50;;
40515;SDS011;26216;53.724;9.898;2023-01-16T06:10:57;1.52;;;0.68;;
40515;SDS011;26216;53.724;9.898;2023-01-16T06:13:23;1.35;;;0.50;;
40515;SDS011;26216;53.724;9.898;2023-01-16T06:15:48;1.38;;;0.70;;
40515;SDS011;26216;53.724;9.898;2023-01-16T06:18:14;1.17;;;0.50;;
40515;SDS011;26216;53.724;9.898;2023-01-16T06:20:41;2.63;;;0.80;;
40515;SDS011;26216;53.724;9.898;2023-01-16T06:23:08;0.98;;;0.47;;
40515;SDS011;26216;53.724;9.898;2023-01-16T06:25:34;1.40;;;0.50;;
40515;SDS011;26216;53.724;9.898;2023-01-16T06:27:59;4.47;;;1.05;;
40515;SDS011;26216;53.724;9.898;2023-01-16T06:30:25;0.90;;;0.45;;
40515;SDS011;26216;53.724;9.898;2023-01-16T06:32:51;1.85;;;0.50;;
40515;SDS011;26216;53.724;9.898;2023-01-16T06:35:18;1.38;;;0.63;;
40515;SDS011;26216;53.724;9.898;2023-01-16T06:37:43;2.47;;;0.60;;
40515;SDS011;26216;53.724;9.898;2023-01-16T06:40:10;1.95;;;0.77;;
40515;SDS011;26216;53.724;9.898;2023-01-16T06:42:35;2.40;;;0.63;;
40515;SDS011;26216;53.724;9.898;2023-01-16T06:45:01;1.40;;;0.50;;
40515;SDS011;26216;53.724;9.898;2023-01-16T06:47:27;3.60;;;0.80;;
40515;SDS011;26216;53.724;9.898;2023-01-16T06:49:53;2.83;;;0.63;;
40515;SDS011;26216;53.724;9.898;2023-01-16T06:52:19;1.58;;;0.70;;
40515;SDS011;26216;53.724;9.898;2023-01-16T06:54:45;1.35;;;0.57;;
40515;SDS011;26216;53.724;9.898;2023-01-16T06:57:11;1.67;;;0.60;;
40515;SDS011;26216;53.724;9.898;2023-01-16T06:59:39;2.08;;;0.60;;
40515;SDS011;26216;53.724;9.898;2023-01-16T07:02:05;1.33;;;0.68;;
40515;SDS011;26216;53.724;9.898;2023-01-16T07:04:31;2.08;;;0.70;;
40515;SDS011;26216;53.724;9.898;2023-01-16T07:06:56;1.02;;;0.50;;
40515;SDS011;26216;53.724;9.898;2023-01-16T07:09:22;2.33;;;0.63;;
40515;SDS011;26216;53.724;9.898;2023-01-16T07:11:54;3.67;;;0.80;;
40515;SDS011;26216;53.724;9.898;2023-01-16T07:14:20;2.38;;;0.63;;
40515;SDS011;26216;53.724;9.898;2023-01-16T07:17:04;2.10;;;0.77;;
40515;SDS011;26216;53.724;9.898;2023-01-16T07:19:48;2.58;;;0.90;;
40515;SDS011;26216;53.724;9.898;2023-01-16T07:22:32;2.90;;;0.85;;
40515;SDS011;26216;53.724;9.898;2023-01-16T07:25:18;2.60;;;0.82;;
40515;SDS011;26216;53.724;9.898;2023-01-16T07:27:48;2.08;;;0.90;;
40515;SDS011;26216;53.724;9.898;2023-01-16T07:30:16;2.50;;;0.90;;
40515;SDS011;26216;53.724;9.898;2023-01-16T07:32:43;2.08;;;0.80;;
40515;SDS011;26216;53.724;9.898;2023-01-16T07:35:10;2.67;;;0.90;;
40515;SDS011;26216;53.724;9.898;2023-01-16T07:37:35;2.97;;;0.80;;
40515;SDS011;26216;53.724;9.898;2023-01-16T07:40:04;2.45;;;0.70;;
40515;SDS011;26216;53.724;9.898;2023-01-16T07:42:30;2.67;;;0.88;;
40515;SDS011;26216;53.724;9.898;2023-01-16T07:44:56;1.70;;;0.70;;
40515;SDS011;26216;53.724;9.898;2023-01-16T07:47:22;1.10;;;0.63;;
40515;SDS011;26216;53.724;9.898;2023-01-16T07:49:48;2.10;;;0.50;;
40515;SDS011;26216;53.724;9.898;2023-01-16T07:52:14;1.58;;;0.60;;
40515;SDS011;26216;53.724;9.898;2023-01-16T07:54:42;2.47;;;0.60;;
40515;SDS011;26216;53.724;9.898;2023-01-16T07:57:08;2.78;;;0.70;;
40515;SDS011;26216;53.724;9.898;2023-01-16T07:59:34;2.38;;;0.57;;
40515;SDS011;26216;53.724;9.898;2023-01-16T08:02:00;1.70;;;0.43;;
40515;SDS011;26216;53.724;9.898;2023-01-16T08:04:27;2.30;;;0.80;;
40515;SDS011;26216;53.724;9.898;2023-01-16T08:06:53;1.77;;;0.75;;
40515;SDS011;26216;53.724;9.898;2023-01-16T08:09:19;1.63;;;0.70;;
40515;SDS011;26216;53.724;9.898;2023-01-16T08:11:45;1.95;;;0.77;;
40515;SDS011;26216;53.724;9.898;2023-01-16T08:14:14;1.83;;;0.70;;
40515;SDS011;26216;53.724;9.898;2023-01-16T08:16:40;4.20;;;1.10;;
40515;SDS011;26216;53.724;9.898;2023-01-16T08:19:06;3.60;;;0.93;;
40515;SDS011;26216;53.724;9.898;2023-01-16T08:21:32;1.92;;;0.73;;
40515;SDS011;26216;53.724;9.898;2023-01-16T08:23:58;1.90;;;0.90;;
40515;SDS011;26216;53.724;9.898;2023-01-16T08:26:24;3.17;;;1.20;;
40515;SDS011;26216;53.724;9.898;2023-01-16T08:28:57;1.95;;;0.80;;
40515;SDS011;26216;53.724;9.898;2023-01-16T08:31:24;1.05;;;0.57;;
40515;SDS011;26216;53.724;9.898;2023-01-16T08:33:51;2.15;;;0.75;;
40515;SDS011;26216;53.724;9.898;2023-01-16T08:36:17;2.08;;;1.02;;
40515;SDS011;26216;53.724;9.898;2023-01-16T08:38:45;2.38;;;0.77;;
40515;SDS011;26216;53.724;9.898;2023-01-16T08:41:13;2.15;;;0.70;;
40515;SDS011;26216;53.724;9.898;2023-01-16T08:43:58;1.55;;;0.70;;
40515;SDS011;26216;53.724;9.898;2023-01-16T08:46:43;2.60;;;0.77;;
40515;SDS011;26216;53.724;9.898;2023-01-16T08:49:29;1.48;;;0.52;;
40515;SDS011;26216;53.724;9.898;2023-01-16T08:52:14;1.77;;;0.60;;
40515;SDS011;26216;53.724;9.898;2023-01-16T08:54:40;2.33;;;0.70;;
40515;SDS011;26216;53.724;9.898;2023-01-16T08:57:06;2.20;;;0.68;;
40515;SDS011;26216;53.724;9.898;2023-01-16T08:59:32;1.70;;;0.80;;
40515;SDS011;26216;53.724;9.898;2023-01-16T09:02:02;2.85;;;1.00;;
40515;SDS011;26216;53.724;9.898;2023-01-16T09:04:29;2.00;;;0.87;;
40515;SDS011;26216;53.724;9.898;2023-01-16T09:06:55;1.92;;;0.82;;
40515;SDS011;26216;53.724;9.898;2023-01-16T09:09:21;2.05;;;0.70;;
40515;SDS011;26216;53.724;9.898;2023-01-16T09:11:53;1.95;;;0.73;;
40515;SDS011;26216;53.724;9.898;2023-01-16T09:14:38;2.05;;;0.73;;
40515;SDS011;26216;53.724;9.898;2023-01-16T09:17:04;2.00;;;0.60;;
40515;SDS011;26216;53.724;9.898;2023-01-16T09:19:31;1.27;;;0.60;;
40515;SDS011;26216;53.724;9.898;2023-01-16T09:21:57;1.77;;;0.80;;
40515;SDS011;26216;53.724;9.898;2023-01-16T09:24:23;1.50;;;0.68;;
40515;SDS011;26216;53.724;9.898;2023-01-16T09:26:50;2.92;;;0.73;;
40515;SDS011;26216;53.724;9.898;2023-01-16T09:29:16;1.63;;;0.77;;
40515;SDS011;26216;53.724;9.898;2023-01-16T09:31:42;1.73;;;0.90;;
40515;SDS011;26216;53.724;9.898;2023-01-16T09:34:07;1.38;;;0.60;;
40515;SDS011;26216;53.724;9.898;2023-01-16T09:36:34;3.22;;;1.10;;
40515;SDS011;26216;53.724;9.898;2023-01-16T09:39:00;2.30;;;1.00;;
40515;SDS011;26216;53.724;9.898;2023-01-16T09:41:25;2.65;;;1.20;;
40515;SDS011;26216;53.724;9.898;2023-01-16T09:44:15;4.78;;;1.65;;
40515;SDS011;26216;53.724;9.898;2023-01-16T09:46:44;2.47;;;1.25;;
40515;SDS011;26216;53.724;9.898;2023-01-16T09:51:46;7.63;;;1.52;;
40515;SDS011;26216;53.724;9.898;2023-01-16T09:54:41;2.50;;;1.20;;
40515;SDS011;26216;53.724;9.898;2023-01-16T09:57:33;2.85;;;1.00;;
40515;SDS011;26216;53.724;9.898;2023-01-16T10:00:20;1.20;;;0.80;;
40515;SDS011;26216;53.724;9.898;2023-01-16T10:02:48;1.98;;;1.02;;
40515;SDS011;26216;53.724;9.898;2023-01-16T10:05:14;1.88;;;0.85;;
40515;SDS011;26216;53.724;9.898;2023-01-16T10:13:08;2.10;;;1.05;;
40515;SDS011;26216;53.724;9.898;2023-01-16T10:27:10;3.33;;;1.27;;
40515;SDS011;26216;53.724;9.898;2023-01-16T10:29:53;3.65;;;1.27;;
40515;SDS011;26216;53.724;9.898;2023-01-16T10:32:39;2.47;;;0.88;;
40515;SDS011;26216;53.724;9.898;2023-01-16T10:40:50;2.17;;;0.85;;
40515;SDS011;26216;53.724;9.898;2023-01-16T10:43:22;1.20;;;0.80;;
40515;SDS011;26216;53.724;9.898;2023-01-16T10:46:18;1.73;;;0.70;;
40515;SDS011;26216;53.724;9.898;2023-01-16T10:49:07;2.15;;;0.57;;
40515;SDS011;26216;53.724;9.898;2023-01-16T10:51:52;2.20;;;0.70;;
40515;SDS011;26216;53.724;9.898;2023-01-16T10:54:22;2.33;;;1.25;;
40515;SDS011;26216;53.724;9.898;2023-01-16T10:56:49;2.38;;;0.70;;
40515;SDS011;26216;53.724;9.898;2023-01-16T10:59:15;3.15;;;0.80;;
40515;SDS011;26216;53.724;9.898;2023-01-16T11:01:43;1.85;;;0.60;;
40515;SDS011;26216;53.724;9.898;2023-01-16T11:04:10;3.50;;;0.73;;
40515;SDS011;26216;53.724;9.898;2023-01-16T11:06:37;2.28;;;0.80;;
40515;SDS011;26216;53.724;9.898;2023-01-16T11:09:06;3.00;;;0.80;;
40515;SDS011;26216;53.724;9.898;2023-01-16T11:11:40;2.40;;;0.65;;
40515;SDS011;26216;53.724;9.898;2023-01-16T11:17:32;1.50;;;0.60;;
40515;SDS011;26216;53.724;9.898;2023-01-16T11:20:19;1.38;;;0.85;;
40515;SDS011;26216;53.724;9.898;2023-01-16T11:22:54;3.83;;;0.90;;
40515;SDS011;26216;53.724;9.898;2023-01-16T11:25:25;2.70;;;0.80;;
40515;SDS011;26216;53.724;9.898;2023-01-16T11:27:52;1.58;;;0.68;;
40515;SDS011;26216;53.724;9.898;2023-01-16T11:30:29;1.50;;;0.75;;
40515;SDS011;26216;53.724;9.898;2023-01-16T11:32:58;2.25;;;1.10;;
40515;SDS011;26216;53.724;9.898;2023-01-16T11:35:25;2.45;;;0.80;;
40515;SDS011;26216;53.724;9.898;2023-01-16T11:37:57;2.70;;;0.80;;
40515;SDS011;26216;53.724;9.898;2023-01-16T11:40:25;1.48;;;0.90;;
40515;SDS011;26216;53.724;9.898;2023-01-16T11:42:53;3.95;;;1.05;;
40515;SDS011;26216;53.724;9.898;2023-01-16T11:45:43;2.97;;;1.02;;
40515;SDS011;26216;53.724;9.898;2023-01-16T11:48:36;1.77;;;0.70;;
40515;SDS011;26216;53.724;9.898;2023-01-16T11:51:14;1.67;;;0.80;;
40515;SDS011;26216;53.724;9.898;2023-01-16T11:53:44;2.60;;;0.98;;
40515;SDS011;26216;53.724;9.898;2023-01-16T12:02:14;2.22;;;0.95;;
40515;SDS011;26216;53.724;9.898;2023-01-16T12:04:53;2.53;;;1.00;;
40515;SDS011;26216;53.724;9.898;2023-01-16T12:07:59;2.97;;;1.00;;
40515;SDS011;26216;53.724;9.898;2023-01-16T12:13:14;1.45;;;0.65;;
40515;SDS011;26216;53.724;9.898;2023-01-16T12:16:06;2.30;;;0.93;;
40515;SDS011;26216;53.724;9.898;2023-01-16T12:29:46;1.48;;;0.70;;
40515;SDS011;26216;53.724;9.898;2023-01-16T12:35:33;2.15;;;1.27;;
40515;SDS011;26216;53.724;9.898;2023-01-16T12:38:25;3.83;;;1.25;;
40515;SDS011;26216;53.724;9.898;2023-01-16T12:54:46;3.67;;;1.85;;
40515;SDS011;26216;53.724;9.898;2023-01-16T13:00:02;3.28;;;0.65;;
40515;SDS011;26216;53.724;9.898;2023-01-16T13:05:23;1.95;;;0.80;;
40515;SDS011;26216;53.724;9.898;2023-01-16T13:08:13;0.82;;;0.50;;
40515;SDS011;26216;53.724;9.898;2023-01-16T13:10:46;1.10;;;0.57;;
40515;SDS011;26216;53.724;9.898;2023-01-16T13:13:38;1.45;;;0.52;;
40515;SDS011;26216;53.724;9.898;2023-01-16T13:16:25;2.08;;;1.17;;
40515;SDS011;26216;53.724;9.898;2023-01-16T13:18:53;3.30;;;0.70;;
40515;SDS011;26216;53.724;9.898;2023-01-16T13:21:25;1.38;;;0.63;;
40515;SDS011;26216;53.724;9.898;2023-01-16T13:24:04;2.30;;;0.70;;
40515;SDS011;26216;53.724;9.898;2023-01-16T13:26:39;1.70;;;0.63;;
40515;SDS011;26216;53.724;9.898;2023-01-16T13:29:11;2.08;;;0.90;;
40515;SDS011;26216;53.724;9.898;2023-01-16T13:31:47;2.20;;;0.82;;
40515;SDS011;26216;53.724;9.898;2023-01-16T13:42:29;2.80;;;1.13;;
40515;SDS011;26216;53.724;9.898;2023-01-16T13:45:01;2.13;;;0.88;;
40515;SDS011;26216;53.724;9.898;2023-01-16T13:47:49;1.42;;;0.75;;
40515;SDS011;26216;53.724;9.898;2023-01-16T13:50:24;2.72;;;0.80;;
40515;SDS011;26216;53.724;9.898;2023-01-16T13:53:02;2.03;;;0.75;;
40515;SDS011;26216;53.724;9.898;2023-01-16T13:55:33;2.00;;;0.60;;
40515;SDS011;26216;53.724;9.898;2023-01-16T13:59:13;1.02;;;0.85;;
40515;SDS011;26216;53.724;9.898;2023-01-16T14:01:05;2.60;;;1.20;;
40515;SDS011;26216;53.724;9.898;2023-01-16T14:03:32;2.17;;;1.10;;
40515;SDS011;26216;53.724;9.898;2023-01-16T14:11:34;2.00;;;0.75;;
40515;SDS011;26216;53.724;9.898;2023-01-16T14:17:09;1.58;;;0.70;;
40515;SDS011;26216;53.724;9.898;2023-01-16T14:19:37;2.05;;;0.60;;
40515;SDS011;26216;53.724;9.898;2023-01-16T14:22:17;2.65;;;0.77;;
40515;SDS011;26216;53.724;9.898;2023-01-16T14:24:46;2.03;;;0.70;;
40515;SDS011;26216;53.724;9.898;2023-01-16T14:27:24;1.88;;;0.80;;
40515;SDS011;26216;53.724;9.898;2023-01-16T14:29:55;3.42;;;0.60;;
40515;SDS011;26216;53.724;9.898;2023-01-16T14:32:25;1.65;;;1.00;;
40515;SDS011;26216;53.724;9.898;2023-01-16T14:34:54;3.00;;;0.73;;
40515;SDS011;26216;53.724;9.898;2023-01-16T14:38:06;2.20;;;0.73;;
40515;SDS011;26216;53.724;9.898;2023-01-16T14:40:45;2.42;;;0.70;;
40515;SDS011;26216;53.724;9.898;2023-01-16T14:46:53;1.83;;;0.80;;
40515;SDS011;26216;53.724;9.898;2023-01-16T14:50:39;2.17;;;1.23;;
40515;SDS011;26216;53.724;9.898;2023-01-16T14:53:25;1.33;;;0.77;;
40515;SDS011;26216;53.724;9.898;2023-01-16T14:56:14;4.95;;;2.17;;
40515;SDS011;26216;53.724;9.898;2023-01-16T14:59:03;3.78;;;2.13;;
40515;SDS011;26216;53.724;9.898;2023-01-16T15:02:19;5.80;;;2.67;;
40515;SDS011;26216;53.724;9.898;2023-01-16T15:04:45;4.75;;;2.03;;
40515;SDS011;26216;53.724;9.898;2023-01-16T15:07:25;3.97;;;1.63;;
40515;SDS011;26216;53.724;9.898;2023-01-16T15:09:59;5.65;;;2.80;;
40515;SDS011;26216;53.724;9.898;2023-01-16T15:12:49;4.82;;;2.10;;
40515;SDS011;26216;53.724;9.898;2023-01-16T15:15:22;2.10;;;1.20;;
40515;SDS011;26216;53.724;9.898;2023-01-16T15:17:57;2.30;;;0.90;;
40515;SDS011;26216;53.724;9.898;2023-01-16T15:20:45;1.63;;;0.80;;
40515;SDS011;26216;53.724;9.898;2023-01-16T15:23:31;0.98;;;0.57;;
40515;SDS011;26216;53.724;9.898;2023-01-16T15:31:38;2.17;;;0.80;;
40515;SDS011;26216;53.724;9.898;2023-01-16T15:36:39;2.30;;;1.10;;
40515;SDS011;26216;53.724;9.898;2023-01-16T15:39:16;3.55;;;1.10;;
40515;SDS011;26216;53.724;9.898;2023-01-16T15:42:27;2.38;;;0.88;;
40515;SDS011;26216;53.724;9.898;2023-01-16T15:45:01;1.42;;;0.77;;
40515;SDS011;26216;53.724;9.898;2023-01-16T15:51:09;2.72;;;0.80;;
40515;SDS011;26216;53.724;9.898;2023-01-16T15:53:44;1.63;;;0.90;;
40515;SDS011;26216;53.724;9.898;2023-01-16T15:58:43;1.85;;;0.80;;
40515;SDS011;26216;53.724;9.898;2023-01-16T16:01:12;2.72;;;0.95;;
40515;SDS011;26216;53.724;9.898;2023-01-16T16:03:41;2.10;;;0.90;;
40515;SDS011;26216;53.724;9.898;2023-01-16T16:06:13;2.40;;;1.10;;
40515;SDS011;26216;53.724;9.898;2023-01-16T16:08:45;4.43;;;2.50;;
40515;SDS011;26216;53.724;9.898;2023-01-16T16:11:32;7.82;;;4.53;;
40515;SDS011;26216;53.724;9.898;2023-01-16T16:14:30;3.88;;;2.28;;
40515;SDS011;26216;53.724;9.898;2023-01-16T16:17:22;3.35;;;1.77;;
40515;SDS011;26216;53.724;9.898;2023-01-16T16:23:13;3.33;;;1.30;;
40515;SDS011;26216;53.724;9.898;2023-01-16T16:25:55;2.88;;;1.10;;
40515;SDS011;26216;53.724;9.898;2023-01-16T16:34:02;12.90;;;7.10;;
40515;SDS011;26216;53.724;9.898;2023-01-16T16:36:38;10.73;;;5.78;;
40515;SDS011;26216;53.724;9.898;2023-01-16T16:39:27;6.45;;;3.55;;
40515;SDS011;26216;53.724;9.898;2023-01-16T16:41:59;5.20;;;2.65;;
40515;SDS011;26216;53.724;9.898;2023-01-16T16:44:45;3.90;;;1.35;;
40515;SDS011;26216;53.724;9.898;2023-01-16T16:47:29;2.63;;;1.35;;
40515;SDS011;26216;53.724;9.898;2023-01-16T16:49:56;2.42;;;1.25;;
40515;SDS011;26216;53.724;9.898;2023-01-16T16:52:27;3.55;;;1.20;;
40515;SDS011;26216;53.724;9.898;2023-01-16T16:55:16;2.35;;;1.20;;
40515;SDS011;26216;53.724;9.898;2023-01-16T16:57:54;2.40;;;0.95;;
40515;SDS011;26216;53.724;9.898;2023-01-16T17:00:23;3.72;;;0.98;;
40515;SDS011;26216;53.724;9.898;2023-01-16T17:02:49;3.78;;;1.15;;
40515;SDS011;26216;53.724;9.898;2023-01-16T17:05:18;2.15;;;1.00;;
40515;SDS011;26216;53.724;9.898;2023-01-16T17:07:45;2.97;;;0.90;;
40515;SDS011;26216;53.724;9.898;2023-01-16T17:10:16;1.30;;;0.70;;
40515;SDS011;26216;53.724;9.898;2023-01-16T17:12:43;2.88;;;1.20;;
40515;SDS011;26216;53.724;9.898;2023-01-16T17:15:09;1.92;;;0.80;;
40515;SDS011;26216;53.724;9.898;2023-01-16T17:17:39;2.60;;;1.05;;
40515;SDS011;26216;53.724;9.898;2023-01-16T17:20:13;2.90;;;1.00;;
40515;SDS011;26216;53.724;9.898;2023-01-16T17:22:44;2.65;;;0.85;;
40515;SDS011;26216;53.724;9.898;2023-01-16T17:25:13;1.30;;;0.60;;
40515;SDS011;26216;53.724;9.898;2023-01-16T17:27:52;1.63;;;0.80;;
40515;SDS011;26216;53.724;9.898;2023-01-16T17:30:20;3.30;;;0.90;;
40515;SDS011;26216;53.724;9.898;2023-01-16T17:32:54;1.63;;;0.80;;
40515;SDS011;26216;53.724;9.898;2023-01-16T17:35:22;1.25;;;0.70;;
40515;SDS011;26216;53.724;9.898;2023-01-16T17:37:49;3.17;;;0.70;;
40515;SDS011;26216;53.724;9.898;2023-01-16T17:40:15;1.65;;;0.82;;
40515;SDS011;26216;53.724;9.898;2023-01-16T17:42:41;2.10;;;0.77;;
40515;SDS011;26216;53.724;9.898;2023-01-16T17:45:30;1.42;;;0.68;;
40515;SDS011;26216;53.724;9.898;2023-01-16T17:48:24;1.67;;;0.70;;
40515;SDS011;26216;53.724;9.898;2023-01-16T17:50:52;1.77;;;0.73;;
40515;SDS011;26216;53.724;9.898;2023-01-16T17:53:19;2.17;;;1.00;;
40515;SDS011;26216;53.724;9.898;2023-01-16T17:55:47;2.72;;;0.90;;
40515;SDS011;26216;53.724;9.898;2023-01-16T17:58:18;2.83;;;0.98;;
40515;SDS011;26216;53.724;9.898;2023-01-16T18:00:54;2.55;;;1.00;;
40515;SDS011;26216;53.724;9.898;2023-01-16T18:03:22;1.25;;;0.75;;
40515;SDS011;26216;53.724;9.898;2023-01-16T18:05:48;2.00;;;0.95;;